Time;durP1;ratioP1;P1;durP2;ratioP2;P2;SDS_P1;SDS_P2;PMS_P1;PMS_P2;Temp;Humidity;BMP_temperature;BMP_pressure;BME280_temperature;BME280_humidity;BME280_pressure;Samples;Min_cycle;Max_cycle;Signal;HPM_P1;HPM_P2
2023/08/24 00:00:41;;;;;;;10.00;6.90;;;;;;;;;;10220246;28;20519;-65
2023/08/24 00:05:38;;;;;;;9.75;6.80;;;;;;;;;;10222593;28;20096;-65
2023/08/24 00:10:34;;;;;;;9.82;6.93;;;;;;;;;;10217719;28;20713;-66
2023/08/24 00:15:31;;;;;;;11.43;7.40;;;;;;;;;;10224472;28;20054;-67
2023/08/24 00:20:27;;;;;;;11.60;7.40;;;;;;;;;;10222920;28;20057;-67
2023/08/24 00:25:24;;;;;;;8.15;6.95;;;;;;;;;;10221189;28;20061;-66
2023/08/24 00:30:20;;;;;;;8.18;6.63;;;;;;;;;;10218408;28;20499;-67
2023/08/24 00:35:17;;;;;;;8.13;7.28;;;;;;;;;;10214470;28;20075;-67
2023/08/24 00:40:13;;;;;;;11.88;7.18;;;;;;;;;;10214350;28;20081;-66
2023/08/24 00:45:11;;;;;;;7.25;6.07;;;;;;;;;;10223353;28;20088;-66
2023/08/24 00:50:08;;;;;;;9.73;6.82;;;;;;;;;;10218026;28;20057;-66
2023/08/24 00:55:05;;;;;;;8.40;6.65;;;;;;;;;;10218872;28;20045;-66
2023/08/24 01:00:02;;;;;;;9.23;6.53;;;;;;;;;;10221625;28;20096;-67
2023/08/24 01:04:59;;;;;;;7.45;6.65;;;;;;;;;;10214222;28;20131;-67
2023/08/24 01:09:56;;;;;;;10.20;7.20;;;;;;;;;;10221101;28;20053;-67
2023/08/24 01:15:07;;;;;;;16.80;7.28;;;;;;;;;;10219940;28;20045;-66
2023/08/24 01:20:05;;;;;;;8.73;6.45;;;;;;;;;;10215746;28;20063;-66
2023/08/24 01:25:09;;;;;;;6.72;6.13;;;;;;;;;;10218393;28;20401;-66
2023/08/24 01:30:06;;;;;;;7.22;6.50;;;;;;;;;;10227104;28;20041;-65
2023/08/24 01:35:04;;;;;;;6.97;6.28;;;;;;;;;;10230019;28;20492;-65
2023/08/24 01:40:13;;;;;;;9.57;6.50;;;;;;;;;;10223598;28;20104;-65
2023/08/24 01:45:10;;;;;;;9.75;5.95;;;;;;;;;;10225601;28;20804;-66
2023/08/24 01:50:07;;;;;;;9.68;6.70;;;;;;;;;;10225831;28;20060;-66
2023/08/24 01:55:03;;;;;;;9.98;6.30;;;;;;;;;;10225992;28;20104;-65
2023/08/24 02:00:00;;;;;;;9.07;6.90;;;;;;;;;;10219961;28;20471;-65
2023/08/24 02:04:56;;;;;;;8.85;6.30;;;;;;;;;;10220027;28;20620;-65
2023/08/24 02:09:52;;;;;;;8.55;6.97;;;;;;;;;;10224297;28;20536;-65
2023/08/24 02:14:48;;;;;;;11.80;6.68;;;;;;;;;;10221168;28;20104;-65
2023/08/24 02:19:45;;;;;;;7.35;6.35;;;;;;;;;;10225586;28;20084;-66
2023/08/24 02:24:42;;;;;;;8.80;7.15;;;;;;;;;;10223710;28;20530;-65
2023/08/24 02:29:39;;;;;;;7.30;6.43;;;;;;;;;;10225025;28;20070;-65
2023/08/24 02:34:35;;;;;;;8.50;7.70;;;;;;;;;;10222571;28;20062;-65
2023/08/24 02:39:31;;;;;;;10.98;9.63;;;;;;;;;;10226480;28;20507;-66
2023/08/24 02:44:27;;;;;;;8.90;7.95;;;;;;;;;;10228247;28;20082;-65
2023/08/24 02:49:24;;;;;;;11.18;9.18;;;;;;;;;;10220792;28;20041;-65
2023/08/24 02:54:20;;;;;;;14.85;9.35;;;;;;;;;;10222106;28;20069;-66
2023/08/24 02:59:16;;;;;;;12.88;9.27;;;;;;;;;;10228444;28;20053;-66
2023/08/24 03:04:13;;;;;;;9.95;8.23;;;;;;;;;;10214275;28;20053;-65
2023/08/24 03:09:09;;;;;;;8.82;8.02;;;;;;;;;;10221768;28;20053;-66
2023/08/24 03:14:06;;;;;;;9.48;8.38;;;;;;;;;;10225234;28;20133;-66
2023/08/24 03:19:02;;;;;;;9.52;8.57;;;;;;;;;;10221169;28;20141;-66
2023/08/24 03:23:58;;;;;;;10.93;9.43;;;;;;;;;;10223972;28;20111;-66
2023/08/24 03:28:54;;;;;;;11.23;10.02;;;;;;;;;;10226800;28;20152;-66
2023/08/24 03:33:51;;;;;;;12.10;10.80;;;;;;;;;;10219489;28;20049;-65
2023/08/24 03:38:47;;;;;;;13.25;11.85;;;;;;;;;;10221033;28;20081;-65
2023/08/24 03:43:44;;;;;;;14.98;12.23;;;;;;;;;;10219877;28;20049;-65
2023/08/24 03:48:40;;;;;;;12.40;11.20;;;;;;;;;;10220691;28;20459;-64
2023/08/24 03:53:36;;;;;;;12.90;11.57;;;;;;;;;;10219847;28;20664;-65
2023/08/24 03:58:32;;;;;;;13.07;11.63;;;;;;;;;;10222169;28;20053;-65
2023/08/24 04:03:32;;;;;;;13.43;11.80;;;;;;;;;;10219800;28;20060;-66
2023/08/24 04:08:28;;;;;;;12.68;11.43;;;;;;;;;;10218543;28;20053;-64
2023/08/24 04:13:25;;;;;;;14.40;12.15;;;;;;;;;;10209332;28;20096;-65
2023/08/24 04:18:21;;;;;;;13.32;11.48;;;;;;;;;;10222118;28;20065;-65
2023/08/24 04:23:17;;;;;;;15.45;12.98;;;;;;;;;;10218994;28;20173;-65
2023/08/24 04:28:14;;;;;;;15.52;12.23;;;;;;;;;;10218999;28;20060;-69
2023/08/24 04:33:10;;;;;;;14.70;12.55;;;;;;;;;;10213228;28;20111;-69
2023/08/24 04:38:06;;;;;;;14.80;11.73;;;;;;;;;;10214394;28;20045;-69
2023/08/24 04:43:03;;;;;;;14.00;11.95;;;;;;;;;;10219370;28;20045;-69
2023/08/24 04:48:01;;;;;;;14.20;12.25;;;;;;;;;;10216466;28;20061;-68
2023/08/24 04:52:57;;;;;;;13.38;12.15;;;;;;;;;;10206429;28;20072;-69
2023/08/24 04:57:53;;;;;;;14.90;13.32;;;;;;;;;;10203331;28;20493;-70
2023/08/24 05:02:50;;;;;;;14.30;12.85;;;;;;;;;;10202310;28;20144;-69
2023/08/24 05:07:47;;;;;;;15.43;13.80;;;;;;;;;;10211985;28;20054;-70
2023/08/24 05:12:44;;;;;;;15.82;14.32;;;;;;;;;;10211816;28;20144;-69
2023/08/24 05:17:40;;;;;;;14.82;13.55;;;;;;;;;;10218916;28;20554;-69
2023/08/24 05:22:36;;;;;;;14.73;13.15;;;;;;;;;;10215779;28;20057;-69
2023/08/24 05:32:53;;;;;;;14.38;13.07;;;;;;;;;;10218573;28;20042;-69
2023/08/24 05:43:01;;;;;;;15.27;13.87;;;;;;;;;;10318641;22;20120;-68
2023/08/24 05:47:57;;;;;;;14.38;13.07;;;;;;;;;;10253374;28;20049;-69
2023/08/24 05:52:53;;;;;;;13.95;12.50;;;;;;;;;;10239096;28;20055;-69
2023/08/24 05:57:50;;;;;;;13.63;12.25;;;;;;;;;;10251920;23;20095;-70
2023/08/24 06:02:47;;;;;;;13.45;12.32;;;;;;;;;;10269343;28;20056;-69
2023/08/24 06:07:43;;;;;;;14.20;13.00;;;;;;;;;;10251734;28;20059;-70
2023/08/24 06:12:40;;;;;;;13.38;11.73;;;;;;;;;;10253588;28;20486;-69
2023/08/24 06:17:36;;;;;;;12.63;11.40;;;;;;;;;;10249192;28;20435;-69
2023/08/24 06:22:32;;;;;;;12.15;11.07;;;;;;;;;;10260556;28;20061;-69
2023/08/24 06:27:30;;;;;;;11.68;10.60;;;;;;;;;;10239874;28;20057;-69
2023/08/24 06:32:26;;;;;;;10.93;9.82;;;;;;;;;;10256033;28;20478;-69
2023/08/24 06:37:23;;;;;;;10.82;9.82;;;;;;;;;;10249117;28;20156;-69
2023/08/24 06:42:19;;;;;;;10.77;9.80;;;;;;;;;;10285820;22;20057;-69
2023/08/24 06:47:15;;;;;;;10.38;9.38;;;;;;;;;;10255479;28;20053;-69
2023/08/24 06:52:11;;;;;;;11.38;9.85;;;;;;;;;;10254064;28;20516;-69
2023/08/24 06:57:08;;;;;;;12.80;8.73;;;;;;;;;;10248004;28;20049;-69
2023/08/24 07:02:04;;;;;;;11.77;8.95;;;;;;;;;;10249533;28;20119;-69
2023/08/24 07:07:01;;;;;;;9.40;8.60;;;;;;;;;;10246627;28;20836;-69
2023/08/24 07:11:57;;;;;;;10.05;9.15;;;;;;;;;;10257520;28;20053;-69
2023/08/24 07:16:53;;;;;;;9.07;8.27;;;;;;;;;;10258598;28;20053;-69
2023/08/24 07:21:50;;;;;;;8.40;7.70;;;;;;;;;;10250436;28;20054;-70
2023/08/24 07:26:46;;;;;;;8.50;7.85;;;;;;;;;;10245266;28;20052;-69
2023/08/24 07:31:43;;;;;;;8.38;7.47;;;;;;;;;;10244780;28;20458;-70
2023/08/24 07:36:39;;;;;;;7.88;7.10;;;;;;;;;;10253524;28;20493;-70
2023/08/24 07:41:36;;;;;;;7.00;6.35;;;;;;;;;;10260288;28;20668;-71
2023/08/24 07:46:32;;;;;;;7.35;6.72;;;;;;;;;;10238801;28;20054;-71
2023/08/24 07:51:28;;;;;;;7.90;6.75;;;;;;;;;;10248435;28;20042;-71
2023/08/24 07:56:25;;;;;;;6.50;5.55;;;;;;;;;;10255400;28;20048;-71
2023/08/24 08:01:21;;;;;;;7.50;6.80;;;;;;;;;;10333754;23;20628;-71
2023/08/24 08:06:17;;;;;;;6.38;5.75;;;;;;;;;;10246459;28;20049;-71
2023/08/24 08:11:14;;;;;;;8.90;5.32;;;;;;;;;;10254070;28;20400;-71
2023/08/24 08:16:10;;;;;;;8.43;5.45;;;;;;;;;;10247080;28;20049;-71
2023/08/24 08:21:11;;;;;;;7.38;6.50;;;;;;;;;;10242433;28;20041;-71
2023/08/24 08:26:10;;;;;;;6.45;5.65;;;;;;;;;;10249437;28;20052;-71
2023/08/24 08:31:06;;;;;;;8.77;6.03;;;;;;;;;;10244464;28;20055;-71
2023/08/24 08:36:03;;;;;;;7.13;5.80;;;;;;;;;;10245896;28;20575;-71
2023/08/24 08:41:03;;;;;;;6.70;6.05;;;;;;;;;;10246801;28;20053;-71
2023/08/24 08:46:00;;;;;;;6.53;5.63;;;;;;;;;;10249961;28;20053;-71
2023/08/24 08:50:57;;;;;;;7.35;5.50;;;;;;;;;;10267167;23;20546;-71
2023/08/24 08:55:55;;;;;;;6.80;5.60;;;;;;;;;;10252608;28;20439;-71
2023/08/24 09:00:52;;;;;;;6.13;5.50;;;;;;;;;;10251567;28;20045;-72
2023/08/24 09:05:48;;;;;;;9.38;6.10;;;;;;;;;;10264852;28;20132;-71
2023/08/24 09:10:45;;;;;;;7.05;6.00;;;;;;;;;;10248729;28;20076;-71
2023/08/24 09:15:41;;;;;;;7.13;5.63;;;;;;;;;;10242391;28;20560;-71
2023/08/24 09:20:37;;;;;;;6.80;5.28;;;;;;;;;;10245245;28;20506;-71
2023/08/24 09:25:44;;;;;;;6.55;5.88;;;;;;;;;;10252021;28;20053;-71
2023/08/24 09:30:42;;;;;;;8.95;6.15;;;;;;;;;;10248087;28;20045;-71
2023/08/24 09:35:38;;;;;;;16.92;7.72;;;;;;;;;;10252731;28;20083;-71
2023/08/24 09:40:35;;;;;;;7.18;6.05;;;;;;;;;;10375066;23;20079;-71
2023/08/24 09:45:32;;;;;;;8.48;6.60;;;;;;;;;;10266149;28;20508;-71
2023/08/24 09:50:28;;;;;;;6.47;5.72;;;;;;;;;;10247844;28;20053;-71
2023/08/24 09:55:27;;;;;;;7.32;5.72;;;;;;;;;;10247694;28;20067;-70
2023/08/24 10:00:25;;;;;;;6.65;5.97;;;;;;;;;;10262542;23;20514;-71
2023/08/24 10:05:23;;;;;;;7.22;5.95;;;;;;;;;;10278643;28;20137;-72
2023/08/24 10:10:35;;;;;;;7.47;6.20;;;;;;;;;;10259613;28;20045;-72
2023/08/24 10:15:32;;;;;;;8.27;6.78;;;;;;;;;;10245917;28;20462;-71
2023/08/24 10:20:28;;;;;;;8.48;7.20;;;;;;;;;;10258909;28;20068;-71
2023/08/24 10:25:25;;;;;;;8.07;7.20;;;;;;;;;;10256523;28;20548;-71
2023/08/24 10:30:22;;;;;;;12.20;7.53;;;;;;;;;;10260761;28;20060;-71
2023/08/24 10:35:19;;;;;;;9.57;7.15;;;;;;;;;;10256678;28;20049;-71
2023/08/24 10:40:30;;;;;;;7.68;6.90;;;;;;;;;;10256633;28;20506;-71
2023/08/24 10:45:26;;;;;;;6.90;6.30;;;;;;;;;;10253334;28;20132;-71
2023/08/24 10:50:23;;;;;;;9.15;6.70;;;;;;;;;;10251077;28;20513;-69
2023/08/24 10:55:26;;;;;;;9.35;7.18;;;;;;;;;;10252094;28;20041;-70
2023/08/24 11:00:25;;;;;;;7.82;7.05;;;;;;;;;;10258787;28;20056;-70
2023/08/24 11:05:25;;;;;;;8.15;7.45;;;;;;;;;;10244180;28;20431;-70
2023/08/24 11:10:22;;;;;;;7.63;6.88;;;;;;;;;;10257339;28;20056;-70
2023/08/24 11:15:29;;;;;;;11.43;9.15;;;;;;;;;;10244230;28;20084;-71
2023/08/24 11:20:25;;;;;;;7.88;7.18;;;;;;;;;;10248645;28;20069;-70
2023/08/24 11:25:22;;;;;;;8.38;7.55;;;;;;;;;;10253537;28;20056;-72
2023/08/24 11:30:18;;;;;;;8.57;7.60;;;;;;;;;;10288872;22;20077;-71
2023/08/24 11:35:14;;;;;;;8.57;7.18;;;;;;;;;;10256044;28;20053;-71
2023/08/24 11:40:17;;;;;;;8.82;7.65;;;;;;;;;;10368342;22;20052;-71
2023/08/24 11:45:14;;;;;;;8.85;7.28;;;;;;;;;;10257577;28;20103;-71
2023/08/24 11:50:10;;;;;;;9.18;7.90;;;;;;;;;;10346938;22;20048;-71
2023/08/24 11:55:08;;;;;;;17.40;7.97;;;;;;;;;;10260392;28;20106;-71
2023/08/24 12:00:35;;;;;;;7.53;6.80;;;;;;;;;;10259698;23;20066;-71
2023/08/24 12:05:47;;;;;;;7.70;6.75;;;;;;;;;;10226838;28;20056;-71
2023/08/24 12:10:43;;;;;;;8.02;7.22;;;;;;;;;;10226980;28;20049;-72
2023/08/24 12:15:40;;;;;;;8.80;7.65;;;;;;;;;;10211578;28;20057;-71
2023/08/24 12:20:37;;;;;;;7.72;7.03;;;;;;;;;;10212934;28;20052;-71
2023/08/24 12:25:40;;;;;;;7.55;6.70;;;;;;;;;;10212953;28;20560;-70
2023/08/24 12:30:49;;;;;;;7.63;6.93;;;;;;;;;;10226098;28;20053;-71
2023/08/24 12:35:46;;;;;;;7.68;6.90;;;;;;;;;;10224753;28;20053;-71
2023/08/24 12:40:42;;;;;;;7.88;6.53;;;;;;;;;;10223892;28;20049;-70
2023/08/24 12:45:39;;;;;;;7.47;6.75;;;;;;;;;;10220915;28;20761;-70
2023/08/24 12:50:35;;;;;;;9.52;7.05;;;;;;;;;;10218601;28;20049;-70
2023/08/24 12:55:33;;;;;;;8.10;6.95;;;;;;;;;;10216142;28;20128;-71
2023/08/24 13:00:29;;;;;;;9.45;6.53;;;;;;;;;;10327123;22;20060;-69
2023/08/24 13:05:25;;;;;;;7.60;6.85;;;;;;;;;;10252940;28;20060;-72
2023/08/24 13:10:22;;;;;;;7.50;6.72;;;;;;;;;;10233672;28;20041;-70
2023/08/24 13:15:18;;;;;;;8.30;6.70;;;;;;;;;;10215708;28;20100;-70
2023/08/24 13:20:15;;;;;;;7.15;6.45;;;;;;;;;;10251729;22;20060;-70
2023/08/24 13:25:11;;;;;;;11.32;6.47;;;;;;;;;;10249807;28;20061;-70
2023/08/24 13:30:08;;;;;;;7.07;6.47;;;;;;;;;;10265414;28;20053;-70
2023/08/24 13:35:04;;;;;;;8.23;7.30;;;;;;;;;;10240565;28;20049;-70
2023/08/24 13:40:03;;;;;;;6.65;6.03;;;;;;;;;;10260533;28;20126;-70
2023/08/24 13:45:00;;;;;;;6.40;5.80;;;;;;;;;;10256613;28;20418;-70
2023/08/24 13:49:56;;;;;;;8.10;6.35;;;;;;;;;;10319995;23;20124;-70
2023/08/24 13:54:53;;;;;;;6.80;6.30;;;;;;;;;;10269715;28;20110;-70
2023/08/24 14:00:08;;;;;;;6.88;6.20;;;;;;;;;;10249572;28;20659;-70
2023/08/24 14:05:09;;;;;;;7.25;6.65;;;;;;;;;;10243321;28;20437;-70
2023/08/24 14:10:07;;;;;;;9.82;7.30;;;;;;;;;;10239232;28;20052;-70
2023/08/24 14:15:04;;;;;;;7.13;6.43;;;;;;;;;;10258804;28;20081;-70
2023/08/24 14:20:00;;;;;;;6.95;6.30;;;;;;;;;;10252112;28;20049;-70
2023/08/24 14:24:56;;;;;;;7.13;6.50;;;;;;;;;;10253750;28;20096;-70
2023/08/24 14:29:53;;;;;;;7.03;6.43;;;;;;;;;;10250545;28;20075;-70
2023/08/24 14:34:49;;;;;;;7.03;6.43;;;;;;;;;;10249345;28;20045;-70
2023/08/24 14:39:45;;;;;;;7.20;6.50;;;;;;;;;;10303225;23;20463;-69
2023/08/24 14:44:41;;;;;;;7.50;6.82;;;;;;;;;;10265525;28;20522;-72
2023/08/24 14:49:38;;;;;;;6.93;6.38;;;;;;;;;;10250959;28;20053;-71
2023/08/24 14:54:34;;;;;;;7.07;6.40;;;;;;;;;;10254531;28;20056;-71
2023/08/24 15:05:06;;;;;;;7.40;6.70;;;;;;;;;;10253498;28;20689;-71
2023/08/24 15:10:03;;;;;;;8.65;6.28;;;;;;;;;;10258189;28;20475;-72
2023/08/24 15:15:00;;;;;;;7.15;6.45;;;;;;;;;;10246775;28;20105;-72
2023/08/24 15:19:57;;;;;;;7.00;6.30;;;;;;;;;;10246261;28;20057;-72
2023/08/24 15:24:53;;;;;;;6.90;6.20;;;;;;;;;;10239687;28;20056;-72
2023/08/24 15:29:51;;;;;;;6.72;6.22;;;;;;;;;;10254497;28;20077;-72
2023/08/24 15:34:47;;;;;;;7.97;7.13;;;;;;;;;;10253698;28;20532;-72
2023/08/24 15:39:44;;;;;;;6.93;6.38;;;;;;;;;;10259147;28;20592;-72
2023/08/24 15:44:40;;;;;;;8.23;6.75;;;;;;;;;;10246325;28;20060;-71
2023/08/24 15:49:36;;;;;;;7.07;6.00;;;;;;;;;;10347959;22;20107;-72
2023/08/24 15:54:32;;;;;;;7.13;6.43;;;;;;;;;;10269521;28;20060;-72
2023/08/24 15:59:29;;;;;;;7.22;6.53;;;;;;;;;;10327123;22;20053;-72
2023/08/24 16:04:25;;;;;;;7.85;6.57;;;;;;;;;;10258425;28;20045;-72
2023/08/24 16:09:21;;;;;;;7.70;6.30;;;;;;;;;;10248139;28;20532;-71
2023/08/24 16:14:18;;;;;;;73.15;15.43;;;;;;;;;;10244632;28;20081;-72
2023/08/24 16:19:15;;;;;;;7.07;6.35;;;;;;;;;;10251748;28;20119;-71
2023/08/24 16:24:11;;;;;;;7.53;6.82;;;;;;;;;;10252212;28;20040;-72
2023/08/24 16:29:08;;;;;;;7.05;6.40;;;;;;;;;;10249374;28;20504;-70
2023/08/24 16:34:04;;;;;;;7.53;6.55;;;;;;;;;;10260707;28;20115;-70
2023/08/24 16:39:02;;;;;;;7.45;6.85;;;;;;;;;;10250657;28;20052;-69
2023/08/24 16:43:58;;;;;;;9.38;7.18;;;;;;;;;;10250521;28;20077;-70
2023/08/24 16:48:55;;;;;;;7.55;6.57;;;;;;;;;;10253196;28;20069;-70
2023/08/24 16:53:51;;;;;;;7.57;6.88;;;;;;;;;;10247061;28;20041;-70
2023/08/24 16:58:47;;;;;;;7.10;6.40;;;;;;;;;;10255703;28;20065;-69
2023/08/24 17:03:45;;;;;;;7.80;7.03;;;;;;;;;;10249830;28;20046;-69
2023/08/24 17:08:41;;;;;;;7.75;7.13;;;;;;;;;;10250738;28;20049;-69
2023/08/24 17:13:38;;;;;;;7.78;7.05;;;;;;;;;;10252945;28;20049;-69
2023/08/24 17:18:34;;;;;;;7.22;6.63;;;;;;;;;;10260994;22;20547;-69
2023/08/24 17:23:31;;;;;;;7.45;6.80;;;;;;;;;;10273016;28;20552;-70
2023/08/24 17:28:27;;;;;;;7.80;7.00;;;;;;;;;;10271256;23;20049;-69
2023/08/24 17:33:23;;;;;;;7.97;7.18;;;;;;;;;;10231133;28;20475;-70
2023/08/24 17:38:20;;;;;;;7.75;7.05;;;;;;;;;;10226628;28;20057;-70
2023/08/24 17:43:16;;;;;;;10.00;6.57;;;;;;;;;;10225847;28;20054;-70
2023/08/24 17:48:13;;;;;;;7.93;6.70;;;;;;;;;;10218911;28;20156;-70
2023/08/24 17:53:09;;;;;;;7.07;6.50;;;;;;;;;;10233228;28;20292;-70
2023/08/24 17:58:45;;;;;;;7.57;6.85;;;;;;;;;;10284306;23;20049;-69
2023/08/24 18:03:34;;;;;;;7.03;6.43;;;;;;;;;;10220836;28;20616;-69
2023/08/24 18:08:30;;;;;;;7.60;6.90;;;;;;;;;;10249103;22;20121;-69
2023/08/24 18:13:36;;;;;;;8.13;6.68;;;;;;;;;;10257109;28;20108;-69
2023/08/24 18:18:34;;;;;;;7.65;6.95;;;;;;;;;;10252253;28;20045;-69
2023/08/24 18:23:30;;;;;;;7.93;7.20;;;;;;;;;;10252583;28;20087;-69
2023/08/24 18:28:27;;;;;;;7.75;6.95;;;;;;;;;;10251968;28;20083;-69
2023/08/24 18:33:24;;;;;;;7.85;6.53;;;;;;;;;;10251622;28;20423;-69
2023/08/24 18:38:21;;;;;;;10.85;6.93;;;;;;;;;;10242570;28;20059;-69
2023/08/24 18:43:17;;;;;;;7.47;6.78;;;;;;;;;;10261164;28;20049;-69
2023/08/24 18:48:14;;;;;;;7.43;6.72;;;;;;;;;;10249458;28;20053;-69
2023/08/24 18:53:10;;;;;;;8.65;7.50;;;;;;;;;;10256622;28;20045;-69
2023/08/24 19:08:47;;;;;;;7.80;7.05;;;;;;;;;;10210324;28;20088;-70
2023/08/24 19:13:44;;;;;;;8.45;7.70;;;;;;;;;;10220053;28;20055;-70
2023/08/24 19:18:40;;;;;;;7.47;6.78;;;;;;;;;;10218752;28;20046;-70
2023/08/24 19:23:37;;;;;;;10.40;7.35;;;;;;;;;;10218657;28;20758;-70
2023/08/24 19:28:34;;;;;;;7.88;7.22;;;;;;;;;;10212272;28;20050;-70
2023/08/24 19:33:30;;;;;;;9.15;7.28;;;;;;;;;;10213516;28;20531;-70
2023/08/24 19:38:26;;;;;;;7.38;6.78;;;;;;;;;;10222243;28;20096;-71
2023/08/24 19:43:23;;;;;;;8.40;7.30;;;;;;;;;;10209917;28;21298;-70
2023/08/24 19:48:20;;;;;;;7.85;7.15;;;;;;;;;;10211437;28;20553;-67
2023/08/24 19:53:16;;;;;;;8.00;7.25;;;;;;;;;;10211517;28;20062;-68
2023/08/24 19:58:12;;;;;;;8.40;7.60;;;;;;;;;;10211110;28;20508;-68
2023/08/24 20:03:11;;;;;;;8.38;7.50;;;;;;;;;;10214496;28;20076;-67
2023/08/24 20:08:07;;;;;;;9.88;8.00;;;;;;;;;;10209559;28;20053;-68
2023/08/24 20:13:04;;;;;;;7.50;6.80;;;;;;;;;;10217081;28;20056;-66
2023/08/24 20:18:00;;;;;;;8.40;7.60;;;;;;;;;;10216797;28;20064;-67
2023/08/24 20:22:56;;;;;;;12.73;7.65;;;;;;;;;;10214772;28;20053;-65
2023/08/24 20:27:53;;;;;;;9.60;7.15;;;;;;;;;;10207018;28;20426;-66
2023/08/24 20:32:50;;;;;;;9.02;7.40;;;;;;;;;;10209140;28;20526;-66
2023/08/24 20:37:46;;;;;;;7.70;7.00;;;;;;;;;;10210873;28;20041;-66
2023/08/24 20:42:42;;;;;;;7.35;6.65;;;;;;;;;;10217975;28;20642;-65
2023/08/24 20:47:39;;;;;;;7.85;6.80;;;;;;;;;;10214448;28;20131;-67
2023/08/24 20:52:35;;;;;;;7.30;6.35;;;;;;;;;;10207470;28;20515;-65
2023/08/24 20:57:33;;;;;;;6.72;6.13;;;;;;;;;;10216864;28;20062;-65
2023/08/24 21:02:30;;;;;;;6.82;6.20;;;;;;;;;;10217810;28;20151;-66
2023/08/24 21:07:28;;;;;;;8.95;7.80;;;;;;;;;;10217576;28;20446;-67
2023/08/24 21:12:25;;;;;;;10.85;9.27;;;;;;;;;;10200444;28;20080;-66
2023/08/24 21:17:22;;;;;;;10.20;9.38;;;;;;;;;;10210828;28;20573;-66
2023/08/24 21:22:19;;;;;;;10.40;9.48;;;;;;;;;;10214235;28;20132;-65
2023/08/24 21:27:15;;;;;;;11.50;10.45;;;;;;;;;;10212229;28;20495;-65
2023/08/24 21:32:11;;;;;;;14.30;11.13;;;;;;;;;;10224040;28;20049;-65
2023/08/24 21:37:08;;;;;;;11.98;10.93;;;;;;;;;;10213370;28;20046;-67
2023/08/24 21:42:04;;;;;;;12.07;11.18;;;;;;;;;;10215928;28;20054;-66
2023/08/24 21:47:00;;;;;;;12.93;11.63;;;;;;;;;;10226256;28;20052;-65
2023/08/24 21:51:57;;;;;;;12.73;11.65;;;;;;;;;;10224071;28;20049;-67
2023/08/24 21:56:53;;;;;;;12.43;11.43;;;;;;;;;;10229189;28;20054;-66
2023/08/24 22:01:49;;;;;;;12.40;11.20;;;;;;;;;;10223247;28;20084;-67
2023/08/24 22:06:46;;;;;;;11.57;10.68;;;;;;;;;;10217246;28;20084;-67
2023/08/24 22:11:42;;;;;;;13.35;11.68;;;;;;;;;;10205231;28;20054;-67
2023/08/24 22:16:38;;;;;;;11.02;10.02;;;;;;;;;;10218186;28;20653;-67
2023/08/24 22:21:35;;;;;;;13.82;10.45;;;;;;;;;;10225502;28;20046;-67
2023/08/24 22:26:31;;;;;;;11.68;10.68;;;;;;;;;;10222270;28;20123;-67
2023/08/24 22:31:27;;;;;;;11.35;10.43;;;;;;;;;;10222157;28;20467;-67
2023/08/24 22:36:24;;;;;;;11.48;10.43;;;;;;;;;;10222472;28;20764;-67
2023/08/24 22:41:20;;;;;;;12.48;11.48;;;;;;;;;;10222965;28;20057;-67
2023/08/24 22:46:16;;;;;;;12.20;11.07;;;;;;;;;;10225472;28;20053;-68
2023/08/24 22:51:13;;;;;;;12.43;11.32;;;;;;;;;;10223980;28;20108;-67
2023/08/24 22:56:12;;;;;;;12.63;10.82;;;;;;;;;;10218595;28;20054;-67
2023/08/24 23:01:18;;;;;;;12.15;11.02;;;;;;;;;;10218623;28;20041;-68
2023/08/24 23:06:16;;;;;;;12.32;11.13;;;;;;;;;;10222341;28;20049;-68
2023/08/24 23:11:12;;;;;;;12.45;11.38;;;;;;;;;;10215664;28;20531;-66
2023/08/24 23:16:08;;;;;;;13.27;12.18;;;;;;;;;;10216767;28;20679;-66
2023/08/24 23:21:05;;;;;;;12.68;11.48;;;;;;;;;;10223591;28;20847;-67
2023/08/24 23:26:02;;;;;;;13.02;12.02;;;;;;;;;;10220452;28;20528;-67
2023/08/24 23:31:00;;;;;;;13.20;12.10;;;;;;;;;;10222118;28;20049;-67
2023/08/24 23:35:56;;;;;;;13.43;12.27;;;;;;;;;;10220761;28;20042;-67
2023/08/24 23:40:56;;;;;;;13.02;11.88;;;;;;;;;;10214521;28;20610;-67
2023/08/24 23:45:53;;;;;;;13.43;12.30;;;;;;;;;;10214040;28;20052;-68
2023/08/24 23:50:49;;;;;;;13.15;12.15;;;;;;;;;;10217766;28;20049;-68
2023/08/24 23:55:45;;;;;;;14.60;13.13;;;;;;;;;;10217511;28;20041;-68
